Time;durP1;ratioP1;P1;durP2;ratioP2;P2;SDS_P1;SDS_P2;PMS_P1;PMS_P2;Temp;Humidity;BMP_temperature;BMP_pressure;BME280_temperature;BME280_humidity;BME280_pressure;Samples;Min_cycle;Max_cycle;Signal;HPM_P1;HPM_P2
2021/08/14 00:00:24;;;;;;;5.90;1.50;;;15.30;99.90;;;;;;4973226;28;20049;-81
2021/08/14 00:02:50;;;;;;;11.40;1.48;;;15.30;99.90;;;;;;5005745;28;20037;-81
2021/08/14 00:05:16;;;;;;;4.18;0.98;;;15.20;99.90;;;;;;4973024;28;20085;-81
2021/08/14 00:07:41;;;;;;;4.85;0.80;;;15.20;99.90;;;;;;4973412;28;20049;-81
2021/08/14 00:10:07;;;;;;;5.80;1.30;;;15.20;99.90;;;;;;4973105;28;20035;-82
2021/08/14 00:12:33;;;;;;;5.47;1.33;;;15.20;99.90;;;;;;4989375;28;20046;-81
2021/08/14 00:14:59;;;;;;;7.47;1.52;;;15.20;99.90;;;;;;5005394;28;20034;-81
2021/08/14 00:17:24;;;;;;;4.93;0.73;;;15.10;99.90;;;;;;4972848;28;20037;-81
2021/08/14 00:19:50;;;;;;;5.18;1.60;;;15.10;99.90;;;;;;5005165;28;20114;-81
2021/08/14 00:22:15;;;;;;;5.57;1.23;;;15.00;99.90;;;;;;5005546;28;20038;-81
2021/08/14 00:24:41;;;;;;;5.70;0.88;;;14.90;99.90;;;;;;5018080;28;20128;-81
2021/08/14 00:27:07;;;;;;;6.93;2.08;;;14.90;99.90;;;;;;5050540;28;20311;-81
2021/08/14 00:29:33;;;;;;;4.60;1.13;;;14.90;99.90;;;;;;5032308;28;20051;-81
2021/08/14 00:31:58;;;;;;;8.40;1.48;;;14.80;99.90;;;;;;5031495;28;20025;-81
2021/08/14 00:34:24;;;;;;;5.63;0.90;;;14.80;99.90;;;;;;5032431;28;20033;-81
2021/08/14 00:36:50;;;;;;;7.05;1.55;;;14.80;99.90;;;;;;5049009;28;20061;-81
2021/08/14 00:39:15;;;;;;;3.67;1.05;;;14.70;99.90;;;;;;5032319;28;20040;-81
2021/08/14 00:41:41;;;;;;;4.95;1.10;;;14.70;99.90;;;;;;5049040;28;20067;-81
2021/08/14 00:44:07;;;;;;;5.28;1.23;;;14.70;99.90;;;;;;5048896;28;20056;-81
2021/08/14 00:46:33;;;;;;;8.05;1.13;;;14.80;99.90;;;;;;5048465;28;20434;-81
2021/08/14 00:49:00;;;;;;;5.60;1.23;;;14.80;99.90;;;;;;5066289;28;20071;-81
2021/08/14 00:51:26;;;;;;;6.80;1.35;;;14.80;99.90;;;;;;5048729;28;20489;-81
2021/08/14 00:53:52;;;;;;;4.93;1.05;;;14.80;99.90;;;;;;5048843;28;20033;-81
2021/08/14 00:56:25;;;;;;;6.82;1.55;;;14.80;99.90;;;;;;5048463;28;20044;-80
2021/08/14 00:58:55;;;;;;;5.38;1.30;;;14.80;99.90;;;;;;5048692;28;20337;-81
2021/08/14 01:01:21;;;;;;;6.72;1.70;;;14.70;99.90;;;;;;5048522;28;20033;-81
2021/08/14 01:03:47;;;;;;;5.47;1.45;;;14.70;99.90;;;;;;5031890;28;20037;-81
2021/08/14 01:06:16;;;;;;;5.20;1.40;;;14.70;99.90;;;;;;5031581;28;20151;-81
2021/08/14 01:08:42;;;;;;;5.15;1.52;;;14.70;99.90;;;;;;5048408;28;20029;-81
2021/08/14 01:11:11;;;;;;;5.47;1.48;;;14.70;99.90;;;;;;5048173;28;20071;-81
2021/08/14 01:13:37;;;;;;;6.57;1.65;;;14.70;99.90;;;;;;5048592;28;20029;-81
2021/08/14 01:16:05;;;;;;;5.95;1.50;;;14.70;99.90;;;;;;5031374;28;20033;-81
2021/08/14 01:18:31;;;;;;;4.88;1.20;;;14.70;99.90;;;;;;5048304;28;20047;-81
2021/08/14 01:20:57;;;;;;;7.07;1.38;;;14.80;99.90;;;;;;5048009;28;20025;-81
2021/08/14 01:23:22;;;;;;;6.75;1.23;;;14.80;99.90;;;;;;5031629;28;20029;-81
2021/08/14 01:26:05;;;;;;;8.25;1.95;;;14.80;99.90;;;;;;5031401;28;20040;-81
2021/08/14 01:28:32;;;;;;;4.00;1.40;;;14.80;99.90;;;;;;5031603;28;20268;-81
2021/08/14 01:31:00;;;;;;;4.85;1.45;;;14.70;99.90;;;;;;5047835;28;20033;-81
2021/08/14 01:33:26;;;;;;;7.95;1.42;;;14.70;99.90;;;;;;5031471;28;20031;-81
2021/08/14 01:35:52;;;;;;;3.38;1.25;;;14.80;99.90;;;;;;5031009;28;20037;-81
2021/08/14 01:38:18;;;;;;;5.18;1.58;;;14.80;99.90;;;;;;5047795;28;20112;-81
2021/08/14 01:40:43;;;;;;;8.07;2.38;;;14.80;99.90;;;;;;5047743;28;20029;-81
2021/08/14 01:43:09;;;;;;;5.45;1.75;;;14.80;99.90;;;;;;5047645;28;20523;-81
2021/08/14 01:45:35;;;;;;;10.48;1.63;;;14.80;99.90;;;;;;5047460;28;20485;-81
2021/08/14 01:48:00;;;;;;;7.90;1.85;;;14.70;99.90;;;;;;5047566;28;20049;-81
2021/08/14 01:50:26;;;;;;;6.72;2.10;;;14.80;99.90;;;;;;5031035;28;20033;-81
2021/08/14 01:52:55;;;;;;;6.47;1.80;;;14.70;99.90;;;;;;5047863;28;20152;-81
2021/08/14 01:55:21;;;;;;;8.00;1.48;;;14.70;99.90;;;;;;5047543;28;20032;-81
2021/08/14 01:57:47;;;;;;;9.63;2.35;;;14.70;99.90;;;;;;5065500;28;20025;-81
2021/08/14 02:00:13;;;;;;;7.55;1.95;;;14.80;99.90;;;;;;5031021;28;20055;-81
2021/08/14 02:02:39;;;;;;;6.80;2.53;;;14.70;99.90;;;;;;5047663;28;20082;-81
2021/08/14 02:05:05;;;;;;;6.75;1.88;;;14.70;99.90;;;;;;5030749;28;20040;-81
2021/08/14 02:07:31;;;;;;;6.82;2.50;;;14.70;99.90;;;;;;5031023;28;20639;-81
2021/08/14 02:09:57;;;;;;;4.72;2.00;;;14.70;99.90;;;;;;5047575;28;20033;-81
2021/08/14 02:12:23;;;;;;;6.55;1.77;;;14.70;99.90;;;;;;5065323;28;20048;-81
2021/08/14 02:14:48;;;;;;;7.03;1.98;;;14.70;99.90;;;;;;5030998;28;20469;-81
2021/08/14 02:17:14;;;;;;;6.13;2.25;;;14.70;99.90;;;;;;5047213;28;20089;-81
2021/08/14 02:19:39;;;;;;;6.53;2.10;;;14.60;99.90;;;;;;5047491;28;20029;-81
2021/08/14 02:22:05;;;;;;;11.45;2.30;;;14.60;99.90;;;;;;5030802;28;20033;-81
2021/08/14 02:24:31;;;;;;;10.30;2.38;;;14.60;99.90;;;;;;5047275;28;20061;-81
2021/08/14 02:26:56;;;;;;;8.98;1.95;;;14.60;99.90;;;;;;5047353;28;20029;-81
2021/08/14 02:29:22;;;;;;;6.35;1.58;;;14.60;99.90;;;;;;5047229;28;20108;-81
2021/08/14 02:31:48;;;;;;;8.85;2.22;;;14.60;99.90;;;;;;5047341;28;20037;-81
2021/08/14 02:34:13;;;;;;;7.22;2.05;;;14.60;99.90;;;;;;5047397;28;20029;-80
2021/08/14 02:36:39;;;;;;;8.05;2.20;;;14.60;99.90;;;;;;5047004;28;20029;-81
2021/08/14 02:39:04;;;;;;;8.15;2.60;;;14.60;99.90;;;;;;5030878;28;20025;-81
2021/08/14 02:41:30;;;;;;;7.35;1.60;;;14.60;99.90;;;;;;5047380;28;20111;-81
2021/08/14 02:43:56;;;;;;;8.15;1.92;;;14.60;99.90;;;;;;5047294;28;20040;-81
2021/08/14 02:46:22;;;;;;;5.78;1.67;;;14.60;99.90;;;;;;5030504;28;20045;-80
2021/08/14 02:48:48;;;;;;;6.13;2.33;;;14.60;99.90;;;;;;5043531;28;20049;-81
2021/08/14 02:51:15;;;;;;;8.73;1.75;;;14.60;99.90;;;;;;5043860;28;20036;-81
2021/08/14 02:53:41;;;;;;;12.48;2.35;;;14.60;99.90;;;;;;5044034;28;20037;-81
2021/08/14 02:56:06;;;;;;;7.63;1.92;;;14.60;99.90;;;;;;5047256;28;20079;-81
2021/08/14 02:58:32;;;;;;;6.18;1.80;;;14.50;99.90;;;;;;5047619;28;20034;-81
2021/08/14 03:00:57;;;;;;;7.03;2.20;;;14.50;99.90;;;;;;5047578;28;20429;-81
2021/08/14 03:03:23;;;;;;;6.00;2.03;;;14.50;99.90;;;;;;5047656;28;20057;-81
2021/08/14 03:05:49;;;;;;;5.40;1.67;;;14.40;99.90;;;;;;5048606;28;20037;-81
2021/08/14 03:08:14;;;;;;;6.32;1.73;;;14.40;99.90;;;;;;5047202;28;20042;-80
2021/08/14 03:10:41;;;;;;;7.22;1.50;;;14.30;99.90;;;;;;5047492;28;20033;-81
2021/08/14 03:13:08;;;;;;;8.88;2.50;;;14.40;99.90;;;;;;5047389;28;20041;-81
2021/08/14 03:15:35;;;;;;;4.70;2.00;;;14.30;99.90;;;;;;5030447;28;20044;-80
2021/08/14 03:18:00;;;;;;;16.55;3.28;;;14.40;99.90;;;;;;5047273;28;20544;-81
2021/08/14 03:20:26;;;;;;;8.70;2.72;;;14.30;99.90;;;;;;5030656;28;20029;-81
2021/08/14 03:22:51;;;;;;;5.68;2.33;;;14.30;99.90;;;;;;5032082;28;20040;-81
2021/08/14 03:25:17;;;;;;;8.25;2.30;;;14.20;99.90;;;;;;5032880;28;20056;-81
2021/08/14 03:27:43;;;;;;;6.18;2.00;;;14.20;99.90;;;;;;5048190;28;20033;-81
2021/08/14 03:30:09;;;;;;;6.65;2.55;;;14.20;99.90;;;;;;5046982;28;20029;-81
2021/08/14 03:32:34;;;;;;;10.18;2.20;;;14.20;99.90;;;;;;5047129;28;20116;-81
2021/08/14 03:35:00;;;;;;;10.40;2.85;;;14.20;99.90;;;;;;5048093;28;20029;-81
2021/08/14 03:37:26;;;;;;;5.57;2.67;;;14.20;99.90;;;;;;5047972;28;20025;-81
2021/08/14 03:39:51;;;;;;;8.55;2.75;;;14.10;99.90;;;;;;5046784;28;20073;-81
2021/08/14 03:42:17;;;;;;;9.80;2.30;;;14.10;99.90;;;;;;5030479;28;20044;-80
2021/08/14 03:44:42;;;;;;;9.77;2.70;;;14.10;99.90;;;;;;5030004;28;20075;-81
2021/08/14 03:47:08;;;;;;;7.07;1.90;;;14.10;99.90;;;;;;5048854;28;20037;-81
2021/08/14 03:49:34;;;;;;;7.45;2.50;;;14.10;99.90;;;;;;5033728;28;20116;-81
2021/08/14 03:51:59;;;;;;;8.82;2.92;;;14.10;99.90;;;;;;5033513;28;20106;-80
2021/08/14 03:54:25;;;;;;;7.78;2.90;;;14.00;99.90;;;;;;5049674;28;20061;-81
2021/08/14 03:56:53;;;;;;;9.07;2.25;;;14.00;99.90;;;;;;5049982;28;20070;-80
2021/08/14 03:59:18;;;;;;;5.53;2.15;;;14.00;99.90;;;;;;5033111;28;20064;-80
2021/08/14 04:01:44;;;;;;;7.72;2.78;;;13.90;99.90;;;;;;5067930;28;20021;-80
2021/08/14 04:04:10;;;;;;;5.90;2.28;;;13.90;99.90;;;;;;5049460;28;20029;-81
2021/08/14 04:06:35;;;;;;;7.32;3.95;;;13.90;99.90;;;;;;5067260;28;20033;-80
2021/08/14 04:09:01;;;;;;;7.03;2.40;;;13.90;99.90;;;;;;5049407;28;20037;-80
2021/08/14 04:11:26;;;;;;;7.45;2.58;;;13.80;99.90;;;;;;5033085;28;20052;-80
2021/08/14 04:13:52;;;;;;;7.93;2.35;;;13.80;99.90;;;;;;5049564;28;20082;-80
2021/08/14 04:16:18;;;;;;;5.22;2.35;;;13.70;99.90;;;;;;5066997;28;20036;-80
2021/08/14 04:18:43;;;;;;;5.10;2.42;;;13.70;99.90;;;;;;5049462;28;20087;-80
2021/08/14 04:21:09;;;;;;;8.57;2.90;;;13.70;99.90;;;;;;5049522;28;20025;-81
2021/08/14 04:23:34;;;;;;;5.13;2.60;;;13.70;99.90;;;;;;5034393;28;20028;-81
2021/08/14 04:26:00;;;;;;;8.40;2.78;;;13.70;99.90;;;;;;5050513;28;20040;-81
2021/08/14 04:28:26;;;;;;;6.78;2.45;;;13.80;99.90;;;;;;5050165;28;20032;-81
2021/08/14 04:30:51;;;;;;;7.10;3.25;;;13.80;99.90;;;;;;5067030;28;20043;-81
2021/08/14 04:33:17;;;;;;;7.40;2.90;;;13.80;99.90;;;;;;5049302;28;20035;-80
2021/08/14 04:35:43;;;;;;;6.95;3.03;;;13.80;99.90;;;;;;5032308;28;20033;-81
2021/08/14 04:38:08;;;;;;;7.90;2.75;;;13.90;99.90;;;;;;5048667;28;20024;-81
2021/08/14 04:40:34;;;;;;;6.18;3.10;;;13.80;99.90;;;;;;5048334;28;20029;-81
2021/08/14 04:43:00;;;;;;;10.35;3.45;;;13.90;99.90;;;;;;5048188;28;20487;-81
2021/08/14 04:45:25;;;;;;;6.55;3.50;;;13.90;99.90;;;;;;5048073;28;20083;-81
2021/08/14 04:47:51;;;;;;;8.00;3.20;;;13.90;99.90;;;;;;5031243;28;20039;-81
2021/08/14 04:50:17;;;;;;;7.18;3.38;;;13.90;99.90;;;;;;5048057;28;20033;-81
2021/08/14 04:52:43;;;;;;;8.20;2.97;;;14.00;99.90;;;;;;5031552;28;20040;-81
2021/08/14 04:55:09;;;;;;;7.55;2.95;;;14.00;99.90;;;;;;5065668;28;20029;-81
2021/08/14 04:57:35;;;;;;;7.38;3.92;;;14.00;99.90;;;;;;5031398;28;20060;-81
2021/08/14 05:00:01;;;;;;;8.73;4.03;;;14.10;99.90;;;;;;5047856;28;20025;-80
2021/08/14 05:02:26;;;;;;;7.25;3.20;;;14.20;99.90;;;;;;5045310;28;20032;-80
2021/08/14 05:04:52;;;;;;;10.10;3.40;;;14.20;99.90;;;;;;5046929;28;20132;-80
2021/08/14 05:07:18;;;;;;;9.63;3.63;;;14.30;99.90;;;;;;5031179;28;20044;-81
2021/08/14 05:09:43;;;;;;;7.20;3.60;;;14.30;99.90;;;;;;5047378;28;20057;-80
2021/08/14 05:12:09;;;;;;;7.95;3.83;;;14.30;99.90;;;;;;5031016;28;20040;-80
2021/08/14 05:14:35;;;;;;;7.55;3.78;;;14.30;99.90;;;;;;5044349;28;20143;-80
2021/08/14 05:17:02;;;;;;;13.95;4.38;;;14.30;99.90;;;;;;5046063;28;20252;-81
2021/08/14 05:19:27;;;;;;;9.65;4.20;;;14.30;99.90;;;;;;5047178;28;20176;-80
2021/08/14 05:21:53;;;;;;;9.65;3.45;;;14.40;99.90;;;;;;5047364;28;20528;-80
2021/08/14 05:24:19;;;;;;;6.63;3.72;;;14.40;99.90;;;;;;5064905;28;20023;-81
2021/08/14 05:26:45;;;;;;;11.88;4.28;;;14.50;99.90;;;;;;5047421;28;20068;-80
2021/08/14 05:29:10;;;;;;;6.38;3.65;;;14.40;99.90;;;;;;5030571;28;20028;-81
2021/08/14 05:31:36;;;;;;;10.20;4.32;;;14.50;99.90;;;;;;5030667;28;20104;-80
2021/08/14 05:34:04;;;;;;;7.35;4.47;;;14.60;99.90;;;;;;5047108;28;20092;-80
2021/08/14 05:36:30;;;;;;;8.25;4.38;;;14.60;99.90;;;;;;5030455;28;20033;-80
2021/08/14 05:38:56;;;;;;;10.18;4.20;;;14.60;99.90;;;;;;5030431;28;20036;-80
2021/08/14 05:41:21;;;;;;;12.25;5.32;;;14.70;99.90;;;;;;5046943;28;20108;-80
2021/08/14 05:43:47;;;;;;;12.63;4.47;;;14.70;99.90;;;;;;5030563;28;20049;-80
2021/08/14 05:46:12;;;;;;;10.18;3.78;;;14.80;99.90;;;;;;5029639;28;20124;-79
2021/08/14 05:48:38;;;;;;;9.90;4.43;;;14.90;99.90;;;;;;5032985;23;20058;-80
2021/08/14 05:51:04;;;;;;;11.35;4.70;;;14.90;99.90;;;;;;5004542;28;20058;-79
2021/08/14 05:53:29;;;;;;;8.98;4.45;;;15.00;99.90;;;;;;5004540;28;20037;-80
2021/08/14 05:55:55;;;;;;;14.52;5.43;;;15.00;99.90;;;;;;5004233;28;20102;-80
2021/08/14 05:58:21;;;;;;;8.75;4.53;;;15.10;99.90;;;;;;5004247;28;20032;-81
2021/08/14 06:00:46;;;;;;;11.50;5.22;;;15.20;99.90;;;;;;5004450;28;20149;-79
2021/08/14 06:03:12;;;;;;;12.45;6.15;;;15.20;99.90;;;;;;5004524;28;20031;-80
2021/08/14 06:05:38;;;;;;;12.73;6.10;;;15.30;99.90;;;;;;5004284;28;20038;-79
2021/08/14 06:08:04;;;;;;;10.55;5.45;;;15.30;99.90;;;;;;5004535;28;20030;-80
2021/08/14 06:10:30;;;;;;;13.05;5.88;;;15.40;99.90;;;;;;5004331;28;20030;-80
2021/08/14 06:12:55;;;;;;;11.20;5.38;;;15.50;99.90;;;;;;5005822;28;20036;-80
2021/08/14 06:15:21;;;;;;;10.32;5.82;;;15.60;99.90;;;;;;5005514;28;20089;-80
2021/08/14 06:17:46;;;;;;;10.30;6.03;;;15.80;99.90;;;;;;5000968;28;20047;-79
2021/08/14 06:20:12;;;;;;;10.88;5.45;;;15.80;99.90;;;;;;4986014;28;20446;-81
2021/08/14 06:22:40;;;;;;;8.52;5.20;;;16.00;99.90;;;;;;4984688;28;20043;-81
2021/08/14 06:25:07;;;;;;;8.93;4.95;;;16.00;99.90;;;;;;5000557;28;20053;-80
2021/08/14 06:27:32;;;;;;;9.50;5.70;;;16.10;99.90;;;;;;4984394;28;20065;-79
2021/08/14 06:29:58;;;;;;;10.25;6.05;;;16.20;99.90;;;;;;4997785;28;20030;-80
2021/08/14 06:32:24;;;;;;;10.30;6.32;;;16.20;99.90;;;;;;5009218;28;20058;-80
2021/08/14 06:34:49;;;;;;;16.27;6.68;;;16.50;99.90;;;;;;5007967;28;20106;-80
2021/08/14 06:37:15;;;;;;;11.25;5.95;;;16.60;99.90;;;;;;5007843;28;20034;-81
2021/08/14 06:39:41;;;;;;;14.68;6.75;;;16.80;99.90;;;;;;5007993;28;20062;-79
2021/08/14 06:42:07;;;;;;;12.90;6.35;;;17.00;99.90;;;;;;5007622;28;20034;-80
2021/08/14 06:44:33;;;;;;;12.52;5.05;;;17.20;99.90;;;;;;5008704;28;20038;-80
2021/08/14 06:47:00;;;;;;;10.63;5.85;;;17.40;99.90;;;;;;4991164;28;20038;-80
2021/08/14 06:49:26;;;;;;;9.82;5.05;;;17.60;99.90;;;;;;5007634;28;20122;-80
2021/08/14 06:51:52;;;;;;;20.25;8.60;;;17.70;99.90;;;;;;4991286;28;20030;-81
2021/08/14 06:54:17;;;;;;;13.57;6.38;;;17.50;99.90;;;;;;4991401;28;20058;-81
2021/08/14 06:56:43;;;;;;;19.92;9.23;;;17.70;99.90;;;;;;5007420;28;20062;-81
2021/08/14 06:59:08;;;;;;;16.88;8.98;;;17.30;99.90;;;;;;4991390;28;20034;-81
2021/08/14 07:01:34;;;;;;;17.08;7.13;;;17.50;99.90;;;;;;5008666;28;20045;-82
2021/08/14 07:03:59;;;;;;;13.38;5.88;;;17.70;99.90;;;;;;4990571;28;20042;-82
2021/08/14 07:06:26;;;;;;;8.25;4.13;;;18.10;99.90;;;;;;5007487;28;20038;-81
2021/08/14 07:08:53;;;;;;;10.77;4.53;;;18.30;99.90;;;;;;4991164;28;20470;-82
2021/08/14 07:11:20;;;;;;;8.27;4.72;;;18.60;99.90;;;;;;5007803;28;20437;-81
2021/08/14 07:13:47;;;;;;;12.80;4.68;;;18.70;99.90;;;;;;5007438;28;20184;-81
2021/08/14 07:16:13;;;;;;;17.27;6.03;;;18.60;99.90;;;;;;5003030;28;20039;-82
2021/08/14 07:18:40;;;;;;;10.73;4.82;;;18.60;99.90;;;;;;5003533;28;20443;-81
2021/08/14 07:21:06;;;;;;;12.10;4.70;;;18.80;99.90;;;;;;4987671;28;20035;-82
2021/08/14 07:23:32;;;;;;;12.55;5.88;;;18.90;99.90;;;;;;4987944;28;20034;-81
2021/08/14 07:25:58;;;;;;;15.73;5.88;;;19.00;99.90;;;;;;4987817;28;20049;-85
2021/08/14 07:28:24;;;;;;;11.00;5.25;;;19.10;99.90;;;;;;4989046;28;20118;-85
2021/08/14 07:30:50;;;;;;;7.85;3.70;;;19.10;99.90;;;;;;5003252;28;20037;-85
2021/08/14 07:33:16;;;;;;;12.30;5.07;;;19.40;99.90;;;;;;5007627;28;20035;-84
2021/08/14 07:35:43;;;;;;;7.82;3.45;;;19.20;99.90;;;;;;4991272;28;20035;-82
2021/08/14 07:38:09;;;;;;;12.13;5.45;;;19.40;99.90;;;;;;4991242;28;20034;-85
2021/08/14 07:40:35;;;;;;;15.38;5.35;;;19.30;99.90;;;;;;4990667;28;20030;-81
2021/08/14 07:43:01;;;;;;;9.13;4.07;;;19.30;99.90;;;;;;5007541;28;20049;-85
2021/08/14 07:45:26;;;;;;;10.05;3.72;;;19.90;99.90;;;;;;5008609;28;20105;-84
2021/08/14 07:47:53;;;;;;;8.27;4.22;;;19.90;99.90;;;;;;5007031;28;20050;-85
2021/08/14 07:50:29;;;;;;;10.07;3.78;;;20.10;99.90;;;;;;5008474;28;20335;-85
2021/08/14 07:52:57;;;;;;;8.30;4.07;;;20.20;99.90;;;;;;5007325;28;20065;-85
2021/08/14 07:55:23;;;;;;;13.13;4.32;;;20.30;99.90;;;;;;5006945;28;20030;-85
2021/08/14 07:57:49;;;;;;;7.13;2.50;;;20.50;99.90;;;;;;5008137;28;20061;-84
2021/08/14 08:00:18;;;;;;;7.18;3.17;;;20.90;99.90;;;;;;5008193;28;20030;-85
2021/08/14 08:02:44;;;;;;;9.73;3.90;;;20.80;99.90;;;;;;4990720;28;20049;-84
2021/08/14 08:05:11;;;;;;;11.77;4.22;;;20.60;99.90;;;;;;4998883;28;20042;-83
2021/08/14 08:07:40;;;;;;;11.90;2.95;;;20.50;99.90;;;;;;5006853;28;20121;-84
2021/08/14 08:10:09;;;;;;;14.63;3.78;;;20.90;99.90;;;;;;5023351;28;20038;-85
2021/08/14 08:12:34;;;;;;;16.27;4.53;;;21.00;99.90;;;;;;5008005;28;20042;-91
2021/08/14 08:15:00;;;;;;;11.52;4.38;;;20.40;99.90;;;;;;4990610;28;20085;-86
2021/08/14 08:17:25;;;;;;;10.77;2.55;;;20.40;99.90;;;;;;5022896;28;20053;-86
2021/08/14 08:19:52;;;;;;;8.93;2.58;;;21.10;99.90;;;;;;4989956;28;20590;-83
2021/08/14 08:22:18;;;;;;;11.35;3.65;;;21.40;99.90;;;;;;5007229;28;20033;-83
2021/08/14 08:24:43;;;;;;;12.07;4.50;;;21.20;99.90;;;;;;5006229;28;20039;-83
2021/08/14 08:27:09;;;;;;;10.02;3.30;;;20.00;99.90;;;;;;5006433;28;20053;-82
2021/08/14 08:29:35;;;;;;;7.90;1.90;;;20.50;99.90;;;;;;5007130;28;20033;-81
2021/08/14 08:32:00;;;;;;;10.68;3.92;;;20.90;99.90;;;;;;5007411;28;20447;-83
2021/08/14 08:34:26;;;;;;;12.55;3.58;;;20.50;99.90;;;;;;5005815;28;20058;-84
2021/08/14 08:36:53;;;;;;;11.10;2.83;;;20.40;99.90;;;;;;5006006;28;20027;-82
2021/08/14 08:39:19;;;;;;;18.35;4.20;;;21.00;99.90;;;;;;5007170;28;20034;-83
2021/08/14 08:41:44;;;;;;;17.48;4.95;;;20.30;99.90;;;;;;5006095;28;20037;-85
2021/08/14 08:44:10;;;;;;;21.35;3.83;;;20.00;99.90;;;;;;5006879;28;20030;-82
2021/08/14 08:46:36;;;;;;;12.07;4.35;;;20.60;99.90;;;;;;4989685;28;20102;-83
2021/08/14 08:49:03;;;;;;;39.25;5.07;;;20.60;99.90;;;;;;5006807;28;20601;-83
2021/08/14 08:51:30;;;;;;;14.55;3.33;;;21.10;99.90;;;;;;5005409;28;20034;-83
2021/08/14 08:53:57;;;;;;;9.73;2.10;;;21.20;99.90;;;;;;5005339;28;20177;-82
2021/08/14 08:56:22;;;;;;;73.55;6.72;;;21.90;99.90;;;;;;5007021;28;20034;-79
2021/08/14 08:58:48;;;;;;;21.67;3.88;;;22.10;99.90;;;;;;5006781;28;20100;-81
2021/08/14 09:01:14;;;;;;;11.20;2.42;;;21.30;99.90;;;;;;5005341;28;20085;-82
2021/08/14 09:03:40;;;;;;;10.45;3.92;;;21.40;99.90;;;;;;5006462;28;20030;-79
2021/08/14 09:06:06;;;;;;;12.32;2.53;;;21.00;99.90;;;;;;5005092;28;20064;-82
2021/08/14 09:08:32;;;;;;;10.32;2.28;;;22.10;99.90;;;;;;5006407;28;20030;-79
2021/08/14 09:11:08;;;;;;;9.02;1.92;;;22.50;99.90;;;;;;5004919;28;20054;-81
2021/08/14 09:13:34;;;;;;;15.50;3.58;;;22.80;99.90;;;;;;5006210;28;20042;-83
2021/08/14 09:16:17;;;;;;;13.82;3.53;;;21.30;99.90;;;;;;5004608;28;20037;-81
2021/08/14 09:18:58;;;;;;;16.13;3.38;;;21.20;99.90;;;;;;5006170;28;20031;-82
2021/08/14 09:21:38;;;;;;;7.45;1.98;;;21.40;99.90;;;;;;5006910;28;20049;-90
2021/08/14 09:24:06;;;;;;;8.27;2.10;;;22.30;99.90;;;;;;4988991;28;20041;-85
2021/08/14 09:26:52;;;;;;;6.38;1.33;;;22.30;99.90;;;;;;5005238;28;20069;-85
2021/08/14 09:29:27;;;;;;;7.30;1.25;;;23.00;99.90;;;;;;4998382;28;20038;-84
2021/08/14 09:31:54;;;;;;;7.30;1.40;;;23.00;99.90;;;;;;5005145;28;20033;-84
2021/08/14 09:34:22;;;;;;;8.25;1.80;;;23.10;99.90;;;;;;5005131;28;20035;-88
2021/08/14 09:37:14;;;;;;;9.23;2.53;;;22.30;99.90;;;;;;5004913;28;20053;-83
2021/08/14 09:39:59;;;;;;;6.60;1.77;;;21.80;99.90;;;;;;5003390;28;20042;-85
2021/08/14 09:42:25;;;;;;;7.22;1.00;;;22.80;99.90;;;;;;5005612;28;20030;-88
2021/08/14 09:45:14;;;;;;;6.18;1.38;;;23.10;99.90;;;;;;5005558;28;20041;-93
2021/08/14 09:47:41;;;;;;;9.80;1.58;;;23.00;99.90;;;;;;5004923;28;20038;-85
2021/08/14 09:50:11;;;;;;;10.73;2.13;;;23.30;99.90;;;;;;5005064;28;20120;-86
2021/08/14 09:52:37;;;;;;;5.47;1.20;;;22.10;99.90;;;;;;5005111;28;20030;-85
2021/08/14 09:55:03;;;;;;;6.28;1.35;;;22.80;99.90;;;;;;5004305;28;20148;-85
2021/08/14 09:57:29;;;;;;;5.53;1.20;;;22.80;99.90;;;;;;4988314;28;20405;-87
2021/08/14 09:59:56;;;;;;;5.47;0.70;;;22.80;99.90;;;;;;5004728;28;20034;-87
2021/08/14 10:02:26;;;;;;;9.40;1.60;;;23.30;99.90;;;;;;4988194;28;20106;-86
2021/08/14 10:04:55;;;;;;;10.90;1.67;;;22.60;99.90;;;;;;5005642;28;20042;-88
2021/08/14 10:07:21;;;;;;;11.55;1.40;;;21.90;99.90;;;;;;4988331;28;20101;-87
2021/08/14 10:09:48;;;;;;;6.38;1.20;;;21.70;99.90;;;;;;5004523;28;20034;-86
2021/08/14 10:12:15;;;;;;;7.18;1.50;;;22.00;99.90;;;;;;5004525;28;20038;-85
2021/08/14 10:14:43;;;;;;;10.43;1.42;;;22.40;99.90;;;;;;4987875;28;20463;-85
2021/08/14 10:17:09;;;;;;;7.30;1.67;;;22.00;99.90;;;;;;4987917;28;20042;-86
2021/08/14 10:19:36;;;;;;;9.40;2.30;;;21.90;99.90;;;;;;5004389;28;20028;-87
2021/08/14 10:22:07;;;;;;;12.25;2.22;;;21.90;99.90;;;;;;5005732;28;20026;-85
2021/08/14 10:24:43;;;;;;;9.85;1.65;;;21.90;99.90;;;;;;5004070;28;20043;-86
2021/08/14 10:27:15;;;;;;;15.65;3.10;;;22.90;99.90;;;;;;5004288;28;20041;-85
2021/08/14 10:29:55;;;;;;;16.00;4.30;;;22.50;99.90;;;;;;4987913;28;20023;-85
2021/08/14 10:32:29;;;;;;;8.75;2.33;;;21.70;99.90;;;;;;5004029;28;20546;-84
2021/08/14 10:35:28;;;;;;;10.60;3.67;;;22.90;99.90;;;;;;4987660;28;20157;-85
2021/08/14 10:37:54;;;;;;;12.52;5.28;;;22.50;99.90;;;;;;4982349;28;20081;-86
2021/08/14 10:40:20;;;;;;;17.60;7.53;;;22.00;99.90;;;;;;5003274;28;20065;-87
2021/08/14 10:42:52;;;;;;;20.60;9.23;;;22.10;99.90;;;;;;4967483;28;20058;-85
2021/08/14 10:45:25;;;;;;;25.25;9.55;;;22.10;99.90;;;;;;4987468;28;20066;-86
2021/08/14 10:47:50;;;;;;;16.95;7.10;;;22.00;99.90;;;;;;4987569;28;20109;-87
2021/08/14 10:50:31;;;;;;;25.48;11.75;;;22.70;99.90;;;;;;5003965;28;20030;-87
2021/08/14 10:53:15;;;;;;;28.20;12.63;;;22.00;99.90;;;;;;4987938;28;20103;-86
2021/08/14 10:55:46;;;;;;;22.52;12.70;;;21.90;99.90;;;;;;4988094;28;20037;-88
2021/08/14 10:58:20;;;;;;;22.45;9.68;;;21.80;99.90;;;;;;5001389;28;20111;-86
2021/08/14 11:00:45;;;;;;;21.33;9.27;;;22.00;99.90;;;;;;4988351;28;20098;-86
2021/08/14 11:03:13;;;;;;;22.05;10.32;;;22.50;99.90;;;;;;5004288;28;20042;-93
2021/08/14 11:05:45;;;;;;;25.67;12.02;;;22.40;99.90;;;;;;5004352;28;20041;-89
2021/08/14 11:08:29;;;;;;;23.02;11.70;;;22.10;99.90;;;;;;4974058;28;20065;-94
2021/08/14 11:10:56;;;;;;;23.48;10.73;;;21.80;99.90;;;;;;4986474;28;20027;-93
2021/08/14 11:13:30;;;;;;;28.52;12.52;;;22.00;99.90;;;;;;4987905;28;20031;-90
2021/08/14 11:15:56;;;;;;;26.83;12.07;;;21.30;99.90;;;;;;4987338;28;20041;-88
2021/08/14 11:18:51;;;;;;;19.13;10.40;;;21.50;99.90;;;;;;4971832;28;20058;-86
2021/08/14 11:21:17;;;;;;;25.92;10.68;;;21.80;99.90;;;;;;4972890;28;20035;-93
2021/08/14 11:23:58;;;;;;;22.55;10.77;;;21.50;99.90;;;;;;4983531;28;20031;-90
2021/08/14 11:26:32;;;;;;;19.80;10.38;;;21.70;99.90;;;;;;5004408;28;20045;-93
2021/08/14 11:29:00;;;;;;;21.45;11.07;;;21.90;99.90;;;;;;4990304;28;20483;-93
2021/08/14 11:31:27;;;;;;;24.10;10.93;;;21.70;99.90;;;;;;5007316;28;20034;-88
2021/08/14 11:34:12;;;;;;;25.45;11.35;;;21.60;99.90;;;;;;5007112;28;20094;-89
2021/08/14 11:36:41;;;;;;;25.27;11.50;;;21.40;99.90;;;;;;5007420;28;20085;-91
2021/08/14 11:39:08;;;;;;;23.17;11.55;;;21.40;99.90;;;;;;5007066;28;20493;-89
2021/08/14 11:41:34;;;;;;;21.45;11.10;;;21.60;99.90;;;;;;4990390;28;20074;-93
2021/08/14 11:44:05;;;;;;;20.88;10.40;;;21.60;99.90;;;;;;5007024;28;20142;-89
2021/08/14 11:46:32;;;;;;;29.92;12.52;;;21.30;99.90;;;;;;4990748;28;20043;-90
2021/08/14 11:49:03;;;;;;;26.35;10.93;;;21.30;99.90;;;;;;5006663;28;20066;-93
2021/08/14 11:51:29;;;;;;;21.73;10.63;;;21.50;99.90;;;;;;5006360;28;20413;-89
2021/08/14 11:54:07;;;;;;;26.55;11.65;;;21.60;99.90;;;;;;5005702;28;20026;-88
2021/08/14 11:56:33;;;;;;;22.63;10.43;;;21.30;99.90;;;;;;4990033;28;20069;-90
2021/08/14 11:58:59;;;;;;;26.63;11.75;;;21.10;99.90;;;;;;4990634;28;20098;-89
2021/08/14 12:01:25;;;;;;;20.23;10.20;;;21.30;99.90;;;;;;4990618;28;20061;-91
2021/08/14 12:03:58;;;;;;;26.80;13.13;;;21.20;99.90;;;;;;5006641;28;20034;-90
2021/08/14 12:06:28;;;;;;;20.23;10.27;;;21.20;99.90;;;;;;4990459;28;20280;-88
2021/08/14 12:08:57;;;;;;;28.95;10.30;;;21.20;99.90;;;;;;4990644;28;20375;-88
2021/08/14 12:11:26;;;;;;;21.33;9.88;;;21.20;99.90;;;;;;4990315;28;20042;-90
2021/08/14 12:14:12;;;;;;;20.92;9.15;;;21.30;99.90;;;;;;4990556;28;20106;-91
2021/08/14 12:16:39;;;;;;;18.15;9.50;;;21.50;99.90;;;;;;4986624;28;20042;-89
2021/08/14 12:19:17;;;;;;;18.17;8.15;;;21.10;99.90;;;;;;4970809;28;20423;-91
2021/08/14 12:21:45;;;;;;;15.55;6.07;;;22.00;99.90;;;;;;4970915;28;20035;-91
2021/08/14 12:24:11;;;;;;;24.63;10.23;;;21.90;99.90;;;;;;4988058;28;20030;-88
2021/08/14 12:26:37;;;;;;;15.82;7.63;;;21.50;99.90;;;;;;4970653;28;20054;-90
2021/08/14 12:29:05;;;;;;;18.90;9.32;;;21.40;99.90;;;;;;4971418;28;20031;-93
2021/08/14 12:31:49;;;;;;;17.23;9.05;;;22.10;99.90;;;;;;4990162;28;20034;-91
2021/08/14 12:34:23;;;;;;;16.70;7.38;;;22.10;99.90;;;;;;4989791;28;20138;-91
2021/08/14 12:36:59;;;;;;;22.88;9.55;;;22.30;99.90;;;;;;4989932;28;20064;-90
2021/08/14 12:39:51;;;;;;;14.93;8.18;;;22.00;99.90;;;;;;4989922;28;20564;-88
2021/08/14 12:42:22;;;;;;;15.68;8.50;;;21.90;99.90;;;;;;5005971;28;20030;-90